createdAt,value
2022-09-25T00:01:10.102Z,86300.22
2022-09-25T00:03:38.135Z,86304.34
2022-09-25T00:06:08.798Z,86267.06
2022-09-25T00:08:37.079Z,86289.19
2022-09-25T00:11:13.694Z,86300.22
2022-09-25T00:13:42.901Z,86280.19
2022-09-25T00:16:12.154Z,86290.56
2022-09-25T00:18:57.992Z,86298.84
2022-09-25T00:21:29.593Z,86289.16
2022-09-25T00:24:05.227Z,86275.38
2022-09-25T00:26:35.169Z,86283.63
2022-09-25T00:29:03.195Z,86282.25
2022-09-25T00:31:31.208Z,86285.03
2022-09-25T00:34:01.134Z,86222.94
2022-09-25T00:36:28.825Z,86268.47
2022-09-25T00:38:56.152Z,86286.44
2022-09-25T00:41:26.007Z,86247.78
2022-09-25T00:43:56.376Z,86253.28
2022-09-25T00:46:42.526Z,86278.16
2022-09-25T00:49:22.021Z,86279.50
2022-09-25T00:52:00.322Z,86273.97
2022-09-25T00:54:31.898Z,86255.38
2022-09-25T00:57:04.150Z,86274.69
2022-09-25T00:59:38.980Z,86242.97
2022-09-25T01:02:07.704Z,86272.63
2022-09-25T01:04:38.298Z,86267.13
2022-09-25T01:07:05.585Z,86242.28
2022-09-25T01:09:32.724Z,86245.72
2022-09-25T01:11:59.714Z,86256.06
2022-09-25T01:14:27.170Z,86260.91
2022-09-25T01:17:20.500Z,86243.66
2022-09-25T01:20:02.292Z,86267.09
2022-09-25T01:23:06.499Z,86270.56
2022-09-25T01:25:45.617Z,86270.56
2022-09-25T01:28:49.730Z,86271.94
2022-09-25T01:31:27.700Z,86260.22
2022-09-25T01:34:09.637Z,86269.19
2022-09-25T01:36:41.776Z,86261.59
2022-09-25T01:39:22.835Z,86262.97
2022-09-25T01:41:52.523Z,86250.56
2022-09-25T01:44:31.316Z,86253.31
2022-09-25T01:47:15.319Z,86233.31
2022-09-25T01:49:50.660Z,86258.81
2022-09-25T01:52:26.093Z,86231.19
2022-09-25T01:55:02.715Z,86268.47
2022-09-25T01:57:38.611Z,86258.81
2022-09-25T02:00:10.365Z,86256.00
2022-09-25T02:02:46.585Z,86268.47
2022-09-25T02:05:31.293Z,86245.00
2022-09-25T02:08:06.055Z,86238.06
2022-09-25T02:10:43.594Z,86265.72
2022-09-25T02:13:14.517Z,86231.16
2022-09-25T02:15:45.674Z,86215.94
2022-09-25T02:18:36.052Z,86257.38
2022-09-25T02:21:38.558Z,86244.97
2022-09-25T02:24:40.571Z,86239.44
2022-09-25T02:27:07.547Z,86238.72
2022-09-25T02:29:35.197Z,86202.13
2022-09-25T02:32:32.487Z,86258.78
2022-09-25T02:35:00.574Z,86213.91
2022-09-25T02:37:30.044Z,86253.94
2022-09-25T02:40:01.495Z,86247.03
2022-09-25T02:42:39.808Z,86236.69
2022-09-25T02:45:21.633Z,86233.94
2022-09-25T02:47:54.655Z,86235.31
2022-09-25T02:50:54.897Z,86237.38
2022-09-25T02:53:33.818Z,86234.63
2022-09-25T02:56:20.892Z,86207.66
2022-09-25T02:59:02.673Z,86237.38
2022-09-25T03:01:33.209Z,86206.31
2022-09-25T03:04:01.799Z,86229.09
2022-09-25T03:06:30.503Z,86200.75
2022-09-25T03:08:59.643Z,86236.66
2022-09-25T03:11:27.201Z,86204.22
2022-09-25T03:14:01.822Z,86198.00
2022-09-25T03:16:34.904Z,86231.84
2022-09-25T03:19:03.348Z,86239.41
2022-09-25T03:21:30.285Z,86229.72
2022-09-25T03:23:57.349Z,86217.31
2022-09-25T03:26:25.227Z,86209.75
2022-09-25T03:28:52.428Z,86221.44
2022-09-25T03:31:20.287Z,86235.94
2022-09-25T03:33:48.936Z,86222.13
2022-09-25T03:36:19.178Z,86238.00
2022-09-25T03:38:48.346Z,86219.31
2022-09-25T03:41:20.019Z,86226.91
2022-09-25T03:43:51.622Z,86236.53
2022-09-25T03:46:21.773Z,86216.50
2022-09-25T03:48:49.025Z,86242.03
2022-09-25T03:51:16.106Z,86218.53
2022-09-25T03:53:43.213Z,86195.78
2022-09-25T03:56:14.027Z,86237.22
2022-09-25T03:58:41.324Z,86237.91
2022-09-25T04:01:08.638Z,86235.16
2022-09-25T04:03:35.608Z,86237.84
2022-09-25T04:06:04.965Z,86234.44
2022-09-25T04:08:33.212Z,86233.72
2022-09-25T04:11:00.274Z,86221.28
2022-09-25T04:13:30.325Z,86225.47
2022-09-25T04:15:58.770Z,86210.25
2022-09-25T04:18:28.271Z,86229.63
2022-09-25T04:20:55.184Z,86211.66
2022-09-25T04:23:22.151Z,86230.97
2022-09-25T04:25:49.851Z,86213.03
2022-09-25T04:28:16.851Z,86208.19
2022-09-25T04:30:43.884Z,86225.44
2022-09-25T04:33:29.495Z,86192.28
2022-09-25T04:35:56.994Z,86233.66
2022-09-25T04:38:24.042Z,86223.97
2022-09-25T04:40:51.316Z,86206.72
2022-09-25T04:43:18.548Z,86230.19
2022-09-25T04:45:47.469Z,86239.16
2022-09-25T04:48:14.442Z,86211.50
2022-09-25T04:50:48.759Z,86238.44
2022-09-25T04:53:16.514Z,86205.34
2022-09-25T04:55:43.498Z,86193.56
2022-09-25T04:58:11.324Z,86181.19
2022-09-25T05:00:39.594Z,86183.28
2022-09-25T05:03:06.884Z,86214.38
2022-09-25T05:05:34.002Z,86200.56
2022-09-25T05:08:02.552Z,86217.19
2022-09-25T05:10:32.516Z,86204.75
2022-09-25T05:13:04.534Z,86173.72
2022-09-25T05:15:33.469Z,86208.97
2022-09-25T05:18:13.590Z,86204.16
2022-09-25T05:20:40.588Z,86214.53
2022-09-25T05:23:07.686Z,86164.13
2022-09-25T05:25:34.730Z,86191.09
2022-09-25T05:28:02.422Z,86232.50
2022-09-25T05:30:31.966Z,86243.56
2022-09-25T05:32:59.587Z,86235.28
2022-09-25T05:35:29.070Z,86210.47
2022-09-25T05:37:56.222Z,86231.19
2022-09-25T05:40:24.266Z,86243.63
2022-09-25T05:42:52.177Z,86240.88
2022-09-25T05:45:21.271Z,86249.84
2022-09-25T05:47:48.414Z,86248.50
2022-09-25T05:50:17.319Z,86246.41
2022-09-25T05:52:44.690Z,86254.66
2022-09-25T05:55:12.144Z,86254.66
2022-09-25T05:57:39.468Z,86253.28
2022-09-25T06:00:10.053Z,86231.88
2022-09-25T06:02:40.125Z,86238.78
2022-09-25T06:05:07.293Z,86250.47
2022-09-25T06:07:34.237Z,86249.06
2022-09-25T06:10:01.311Z,86247.66
2022-09-25T06:12:31.927Z,86254.53
2022-09-25T06:14:58.818Z,86240.69
2022-09-25T06:17:25.682Z,86257.91
2022-09-25T06:19:52.645Z,86248.84
2022-09-25T06:22:19.543Z,86219.88
2022-09-25T06:24:48.810Z,86252.94
2022-09-25T06:27:15.795Z,86257.03
2022-09-25T06:29:42.737Z,86230.06
2022-09-25T06:32:09.757Z,86250.69
2022-09-25T06:34:36.769Z,86227.84
2022-09-25T06:37:04.013Z,86258.78
2022-09-25T06:39:33.418Z,86240.78
2022-09-25T06:42:00.489Z,86224.91
2022-09-25T06:44:28.356Z,86256.44
2022-09-25T06:46:55.429Z,86235.00
2022-09-25T06:49:22.367Z,86256.28
2022-09-25T06:51:51.218Z,86214.19
2022-09-25T06:54:18.445Z,86261.59
2022-09-25T06:56:49.733Z,86236.72
2022-09-25T06:59:17.441Z,86265.59
2022-09-25T07:01:44.503Z,86255.78
2022-09-25T07:04:11.542Z,86265.44
2022-09-25T07:06:38.815Z,86226.72
2022-09-25T07:09:05.766Z,86259.56
2022-09-25T07:11:32.753Z,86256.06
2022-09-25T07:13:59.885Z,86231.78
2022-09-25T07:16:30.748Z,86217.75
2022-09-25T07:19:03.548Z,86232.72
2022-09-25T07:21:32.431Z,86256.06
2022-09-25T07:23:59.599Z,86233.31
2022-09-25T07:26:29.802Z,86231.75
2022-09-25T07:29:06.570Z,86248.09
2022-09-25T07:31:40.192Z,86252.75
2022-09-25T07:34:09.694Z,86226.44
2022-09-25T07:36:38.845Z,86244.72
2022-09-25T07:39:06.890Z,86258.41
2022-09-25T07:41:34.808Z,86242.31
2022-09-25T07:44:24.251Z,86231.69
2022-09-25T07:46:49.076Z,86248.63
2022-09-25T07:49:15.968Z,86237.38
2022-09-25T07:51:42.943Z,86219.25
2022-09-25T07:54:09.957Z,86242.41
2022-09-25T07:56:38.372Z,86222.91
2022-09-25T07:59:06.247Z,86220.78
2022-09-25T08:01:33.463Z,86244.66
2022-09-25T08:04:00.623Z,86248.50
2022-09-25T08:06:27.593Z,86226.19
2022-09-25T08:08:54.597Z,86243.25
2022-09-25T08:11:23.397Z,86233.31
2022-09-25T08:13:50.500Z,86236.56
2022-09-25T08:16:19.174Z,86243.00
2022-09-25T08:18:47.481Z,86231.63
2022-09-25T08:21:17.112Z,86214.28
2022-09-25T08:23:49.493Z,86215.22
2022-09-25T08:26:17.423Z,86236.31
2022-09-25T08:28:45.317Z,86193.47
2022-09-25T08:31:14.736Z,86236.41
2022-09-25T08:33:49.921Z,86233.94
2022-09-25T08:36:17.190Z,86233.59
2022-09-25T08:38:44.506Z,86225.69
2022-09-25T08:41:21.342Z,86224.50
2022-09-25T08:44:05.346Z,86222.09
2022-09-25T08:47:02.044Z,86199.19
2022-09-25T08:49:34.476Z,86214.59
2022-09-25T08:52:07.018Z,86212.19
2022-09-25T08:54:35.899Z,86235.09
2022-09-25T08:57:38.082Z,86226.84
2022-09-25T09:00:12.810Z,86207.41
2022-09-25T09:02:54.431Z,86165.28
2022-09-25T09:05:41.857Z,86215.31
2022-09-25T09:08:18.168Z,86206.44
2022-09-25T09:11:12.712Z,86205.94
2022-09-25T09:13:49.770Z,86211.78
2022-09-25T09:16:28.617Z,86206.88
2022-09-25T09:18:56.926Z,86214.38
2022-09-25T09:21:37.521Z,86215.34
2022-09-25T09:24:29.088Z,86218.25
2022-09-25T09:27:14.029Z,86222.00
2022-09-25T09:29:57.746Z,86226.50
2022-09-25T09:32:39.190Z,86219.06
2022-09-25T09:35:33.985Z,86214.44
2022-09-25T09:38:15.047Z,86216.25
2022-09-25T09:41:03.844Z,86212.53
2022-09-25T09:43:57.568Z,86206.56
2022-09-25T09:46:38.412Z,86206.31
2022-09-25T09:49:21.466Z,86185.59
2022-09-25T09:51:51.487Z,86189.19
2022-09-25T09:54:25.248Z,86196.00
2022-09-25T09:56:55.480Z,86177.41
2022-09-25T09:59:27.723Z,86157.03
2022-09-25T10:02:16.553Z,86151.16
2022-09-25T10:04:45.682Z,86162.84
2022-09-25T10:07:16.889Z,86194.84
2022-09-25T10:09:44.197Z,86191.91
2022-09-25T10:12:24.318Z,86174.44
2022-09-25T10:14:52.347Z,86199.88
2022-09-25T10:17:24.347Z,86199.88
2022-09-25T10:19:57.767Z,86204.81
2022-09-25T10:22:28.398Z,86211.69
2022-09-25T10:25:02.527Z,86195.69
2022-09-25T10:27:29.472Z,86212.63
2022-09-25T10:30:13.641Z,86161.81
2022-09-25T10:33:07.206Z,86194.78
2022-09-25T10:35:42.467Z,86205.88
2022-09-25T10:38:25.172Z,86188.25
2022-09-25T10:41:03.285Z,86148.81
2022-09-25T10:43:30.529Z,86204.31
2022-09-25T10:46:11.625Z,86194.81
2022-09-25T10:48:58.179Z,86197.41
2022-09-25T10:51:25.872Z,86186.16
2022-09-25T10:54:13.134Z,86195.69
2022-09-25T10:56:40.919Z,86187.53
2022-09-25T10:59:18.594Z,86188.63
2022-09-25T11:01:47.919Z,86181.69
2022-09-25T11:04:20.701Z,86202.19
2022-09-25T11:07:01.347Z,86182.03
2022-09-25T11:09:30.200Z,86207.06
2022-09-25T11:12:13.782Z,86211.78
2022-09-25T11:14:55.399Z,86213.63
2022-09-25T11:17:52.824Z,86193.88
2022-09-25T11:20:42.652Z,86191.59
2022-09-25T11:23:22.739Z,86196.78
2022-09-25T11:26:07.148Z,86151.19
2022-09-25T11:28:37.257Z,86192.72
2022-09-25T11:31:30.189Z,86179.75
2022-09-25T11:34:30.779Z,86189.31
2022-09-25T11:37:10.981Z,86167.38
2022-09-25T11:40:11.137Z,86146.44
2022-09-25T11:43:05.763Z,86156.28
2022-09-25T11:45:51.866Z,86161.97
2022-09-25T11:48:25.134Z,86174.22
2022-09-25T11:51:02.497Z,86171.91
2022-09-25T11:53:35.284Z,86171.66
2022-09-25T11:56:15.204Z,86174.38
2022-09-25T11:59:02.277Z,86180.19
2022-09-25T12:01:53.198Z,86169.88
2022-09-25T12:04:43.666Z,86176.69
2022-09-25T12:07:28.783Z,86173.59
2022-09-25T12:10:15.969Z,86170.88
2022-09-25T12:13:15.328Z,86170.88
2022-09-25T12:15:57.013Z,86145.06
2022-09-25T12:18:40.570Z,86161.28
2022-09-25T12:21:12.643Z,86176.66
2022-09-25T12:23:50.571Z,86186.88
2022-09-25T12:26:23.324Z,86173.69
2022-09-25T12:29:28.411Z,86179.75
2022-09-25T12:32:46.017Z,86175.97
2022-09-25T12:35:38.692Z,86165.78
2022-09-25T12:38:35.033Z,86161.06
2022-09-25T12:41:11.918Z,86141.59
2022-09-25T12:43:48.564Z,86165.19
2022-09-25T12:46:42.648Z,86164.25
2022-09-25T12:49:23.338Z,86161.78
2022-09-25T12:51:52.602Z,86139.63
2022-09-25T12:54:38.337Z,86165.69
2022-09-25T12:57:23.875Z,86164.00
2022-09-25T12:59:59.268Z,86168.75
2022-09-25T13:02:47.326Z,86136.81
2022-09-25T13:05:34.448Z,86135.09
2022-09-25T13:08:01.368Z,86155.19
2022-09-25T13:10:38.596Z,86164.94
2022-09-25T13:13:13.288Z,86137.22
2022-09-25T13:15:42.584Z,86150.50
2022-09-25T13:18:26.991Z,86148.03
2022-09-25T13:20:56.013Z,86152.03
2022-09-25T13:23:41.432Z,86144.66
2022-09-25T13:26:18.616Z,86137.59
2022-09-25T13:29:22.373Z,86143.59
2022-09-25T13:31:50.240Z,86133.78
2022-09-25T13:34:22.337Z,86123.53
2022-09-25T13:36:58.571Z,86116.06
2022-09-25T13:39:53.557Z,86121.53
2022-09-25T13:42:44.148Z,86149.06
2022-09-25T13:45:26.587Z,86141.72
2022-09-25T13:48:10.167Z,86138.72
2022-09-25T13:50:39.756Z,86129.50
2022-09-25T13:53:18.963Z,86126.47
2022-09-25T13:55:48.704Z,86130.09
2022-09-25T13:58:27.146Z,86129.03
2022-09-25T14:00:57.726Z,86104.66
2022-09-25T14:03:44.757Z,86126.84
2022-09-25T14:06:26.161Z,86117.38
2022-09-25T14:08:57.338Z,86094.94
2022-09-25T14:11:30.248Z,86096.59
2022-09-25T14:14:00.219Z,86110.03
2022-09-25T14:16:36.133Z,86079.41
2022-09-25T14:19:04.997Z,86107.50
2022-09-25T14:21:35.564Z,86076.28
2022-09-25T14:24:24.829Z,86096.91
2022-09-25T14:26:52.305Z,86106.63
2022-09-25T14:29:23.927Z,86080.47
2022-09-25T14:32:42.728Z,86112.53
2022-09-25T14:35:19.382Z,86108.66
2022-09-25T14:38:24.924Z,86111.66
2022-09-25T14:41:18.835Z,86111.97
2022-09-25T14:44:03.847Z,86098.81
2022-09-25T14:46:34.327Z,86083.66
2022-09-25T14:49:25.429Z,86076.19
2022-09-25T14:51:55.693Z,86086.47
2022-09-25T14:54:25.997Z,86089.75
2022-09-25T14:56:57.600Z,86070.00
2022-09-25T14:59:46.548Z,86102.38
2022-09-25T15:02:18.912Z,86100.88
2022-09-25T15:04:46.122Z,86097.66
2022-09-25T15:07:17.449Z,86102.00
2022-09-25T15:09:48.349Z,86097.44
2022-09-25T15:12:30.376Z,86060.53
2022-09-25T15:15:17.316Z,86101.00
2022-09-25T15:17:59.309Z,86115.84
2022-09-25T15:20:39.888Z,86105.25
2022-09-25T15:23:14.452Z,86075.81
2022-09-25T15:25:48.711Z,86076.41
2022-09-25T15:28:18.573Z,86106.91
2022-09-25T15:30:53.906Z,86082.31
2022-09-25T15:33:29.828Z,86079.97
2022-09-25T15:35:59.483Z,86056.16
2022-09-25T15:38:33.238Z,86104.91
2022-09-25T15:41:00.491Z,86103.13
2022-09-25T15:43:27.831Z,86096.75
2022-09-25T15:46:10.456Z,86068.25
2022-09-25T15:48:40.841Z,86110.31
2022-09-25T15:51:13.893Z,86109.25
2022-09-25T15:53:44.423Z,86087.25
2022-09-25T15:56:21.372Z,86103.63
2022-09-25T15:58:58.715Z,86110.91
2022-09-25T16:01:47.987Z,86085.16
2022-09-25T16:04:42.846Z,86107.00
2022-09-25T16:07:20.636Z,86064.19
2022-09-25T16:09:47.739Z,86073.59
2022-09-25T16:12:27.523Z,86095.38
2022-09-25T16:14:55.960Z,86073.53
2022-09-25T16:17:37.635Z,86080.56
2022-09-25T16:20:42.935Z,86089.72
2022-09-25T16:23:29.067Z,86070.88
2022-09-25T16:25:58.658Z,86068.94
2022-09-25T16:28:33.684Z,86058.41
2022-09-25T16:31:00.786Z,86090.38
2022-09-25T16:33:31.268Z,86089.34
2022-09-25T16:36:16.210Z,86080.56
2022-09-25T16:39:07.287Z,86094.75
2022-09-25T16:41:36.156Z,86090.53
2022-09-25T16:44:16.073Z,86076.78
2022-09-25T16:46:44.953Z,86097.41
2022-09-25T16:49:12.859Z,86100.50
2022-09-25T16:51:46.319Z,86074.44
2022-09-25T16:54:15.942Z,86064.13
2022-09-25T16:56:44.216Z,86101.97
2022-09-25T16:59:23.037Z,86084.19
2022-09-25T17:01:55.954Z,86061.84
2022-09-25T17:04:26.255Z,86097.56
2022-09-25T17:06:54.456Z,86099.00
2022-09-25T17:09:21.448Z,86079.91
2022-09-25T17:11:50.324Z,86053.78
2022-09-25T17:14:25.822Z,86050.53
2022-09-25T17:16:54.617Z,86084.22
2022-09-25T17:19:22.443Z,86077.88
2022-09-25T17:21:51.587Z,86058.19
2022-09-25T17:24:21.266Z,86089.91
2022-09-25T17:26:48.299Z,86093.50
2022-09-25T17:29:15.291Z,86088.09
2022-09-25T17:31:42.323Z,86088.31
2022-09-25T17:34:24.446Z,86092.47
2022-09-25T17:36:52.748Z,86098.81
2022-09-25T17:39:19.652Z,86070.16
2022-09-25T17:41:47.543Z,86104.59
2022-09-25T17:44:19.552Z,86052.09
2022-09-25T17:46:46.826Z,86098.91
2022-09-25T17:49:13.900Z,86082.25
2022-09-25T17:51:41.138Z,86078.91
2022-09-25T17:54:10.497Z,86087.22
2022-09-25T17:56:39.394Z,86077.13
2022-09-25T17:59:06.690Z,86104.38
2022-09-25T18:01:39.240Z,86102.28
2022-09-25T18:04:21.423Z,86097.72
2022-09-25T18:06:48.875Z,86092.41
2022-09-25T18:09:16.052Z,86109.47
2022-09-25T18:11:43.770Z,86114.56
2022-09-25T18:14:12.664Z,86089.97
2022-09-25T18:16:42.318Z,86119.13
2022-09-25T18:19:52.902Z,86075.94
2022-09-25T18:22:21.967Z,86108.16
2022-09-25T18:24:52.910Z,86083.66
2022-09-25T18:27:22.902Z,86070.00
2022-09-25T18:29:49.904Z,86121.09
2022-09-25T18:32:16.943Z,86082.75
2022-09-25T18:34:43.979Z,86122.50
2022-09-25T18:37:11.656Z,86092.50
2022-09-25T18:39:39.069Z,86116.22
2022-09-25T18:42:06.357Z,86109.53
2022-09-25T18:44:38.431Z,86113.66
2022-09-25T18:47:08.653Z,86106.91
2022-09-25T18:49:36.757Z,86095.91
2022-09-25T18:52:04.038Z,86072.78
2022-09-25T18:54:31.205Z,86093.50
2022-09-25T18:56:58.817Z,86111.44
2022-09-25T18:59:26.740Z,86121.84
2022-09-25T19:01:55.867Z,86126.75
2022-09-25T19:04:23.168Z,86120.22
2022-09-25T19:06:50.304Z,86122.34
2022-09-25T19:09:17.803Z,86123.75
2022-09-25T19:11:45.508Z,86121.09
2022-09-25T19:14:14.976Z,86066.91
2022-09-25T19:16:42.193Z,86119.06
2022-09-25T19:19:09.677Z,86119.72
2022-09-25T19:21:36.649Z,86121.31
2022-09-25T19:24:03.852Z,86084.13
2022-09-25T19:26:31.201Z,86100.78
2022-09-25T19:28:58.222Z,86113.91
2022-09-25T19:31:26.797Z,86117.31
2022-09-25T19:33:55.278Z,86118.06
2022-09-25T19:36:30.366Z,86120.25
2022-09-25T19:38:58.149Z,86134.72
2022-09-25T19:41:28.251Z,86133.31
2022-09-25T19:43:57.462Z,86141.91
2022-09-25T19:46:26.114Z,85828.06
2022-09-25T19:48:53.079Z,86110.28
2022-09-25T19:51:22.467Z,86137.69
2022-09-25T19:53:50.141Z,86114.25
2022-09-25T19:56:19.282Z,86141.06
2022-09-25T19:58:51.159Z,86135.50
2022-09-25T20:01:22.436Z,86097.78
2022-09-25T20:03:49.984Z,86144.63
2022-09-25T20:06:17.834Z,86108.84
2022-09-25T20:08:45.300Z,86094.25
2022-09-25T20:11:23.808Z,86112.91
2022-09-25T20:13:52.777Z,86132.81
2022-09-25T20:16:24.317Z,86129.34
2022-09-25T20:18:57.788Z,86085.38
2022-09-25T20:21:26.601Z,86130.06
2022-09-25T20:23:56.232Z,86128.13
2022-09-25T20:26:23.617Z,86114.97
2022-09-25T20:29:02.310Z,86110.25
2022-09-25T20:31:31.148Z,86109.00
2022-09-25T20:33:58.662Z,86130.38
2022-09-25T20:36:25.653Z,86105.00
2022-09-25T20:38:54.740Z,86103.69
2022-09-25T20:41:23.136Z,86131.16
2022-09-25T20:43:52.321Z,86129.78
2022-09-25T20:46:20.494Z,86118.91
2022-09-25T20:48:51.259Z,86096.19
2022-09-25T20:51:21.339Z,86106.59
2022-09-25T20:53:53.634Z,86136.06
2022-09-25T20:56:22.039Z,86131.28
2022-09-25T20:58:53.068Z,86135.47
2022-09-25T21:01:23.530Z,86127.13
2022-09-25T21:03:52.252Z,86137.53
2022-09-25T21:06:25.293Z,86118.31
2022-09-25T21:08:53.972Z,86140.31
2022-09-25T21:11:21.867Z,86121.81
2022-09-25T21:13:51.564Z,86125.16
2022-09-25T21:16:20.077Z,86124.56
2022-09-25T21:18:52.476Z,86114.84
2022-09-25T21:21:19.631Z,86101.69
2022-09-25T21:23:53.964Z,86122.25
2022-09-25T21:26:22.923Z,86105.84
2022-09-25T21:28:51.811Z,86123.03
2022-09-25T21:31:34.799Z,86102.41
2022-09-25T21:34:01.806Z,86098.25
2022-09-25T21:36:29.064Z,86089.47
2022-09-25T21:38:56.734Z,86085.22
2022-09-25T21:41:25.379Z,86103.06
2022-09-25T21:44:00.647Z,86099.63
2022-09-25T21:46:28.723Z,86075.59
2022-09-25T21:48:57.874Z,86076.22
2022-09-25T21:51:28.478Z,86092.00
2022-09-25T21:53:56.134Z,86063.88
2022-09-25T21:56:25.702Z,86059.66
2022-09-25T21:58:54.540Z,86039.75
2022-09-25T22:01:27.560Z,86067.91
2022-09-25T22:03:56.737Z,86066.47
2022-09-25T22:06:29.069Z,86068.56
2022-09-25T22:08:59.744Z,86038.31
2022-09-25T22:11:27.723Z,86067.88
2022-09-25T22:13:57.486Z,86065.13
2022-09-25T22:16:25.730Z,86061.59
2022-09-25T22:19:14.886Z,86064.53
2022-09-25T22:21:43.602Z,86061.06
2022-09-25T22:24:11.058Z,86072.19
2022-09-25T22:26:40.642Z,86064.56
2022-09-25T22:29:08.058Z,86070.13
2022-09-25T22:31:36.166Z,86052.88
2022-09-25T22:34:06.439Z,86063.84
2022-09-25T22:36:36.048Z,86058.38
2022-09-25T22:39:05.096Z,86058.41
2022-09-25T22:41:32.769Z,86063.97
2022-09-25T22:44:01.148Z,86058.56
2022-09-25T22:46:29.020Z,86057.19
2022-09-25T22:48:56.485Z,86061.28
2022-09-25T22:51:25.360Z,86064.06
2022-09-25T22:53:54.322Z,86053.88
2022-09-25T22:56:25.417Z,86066.88
2022-09-25T22:58:59.316Z,86064.19
2022-09-25T23:01:48.427Z,86058.69
2022-09-25T23:04:20.730Z,86060.72
2022-09-25T23:06:48.591Z,86055.84
2022-09-25T23:09:19.172Z,86059.44
2022-09-25T23:11:46.764Z,86044.16
2022-09-25T23:14:17.289Z,86044.88
2022-09-25T23:16:46.421Z,86033.91
2022-09-25T23:19:14.435Z,86025.63
2022-09-25T23:21:41.738Z,86023.00
2022-09-25T23:24:11.925Z,86040.00
2022-09-25T23:26:39.063Z,86020.25
2022-09-25T23:29:06.570Z,86013.97
2022-09-25T23:31:33.999Z,86000.19
2022-09-25T23:34:02.327Z,86032.56
2022-09-25T23:36:30.329Z,86018.19
2022-09-25T23:39:00.383Z,86027.72
2022-09-25T23:41:30.552Z,86034.09
2022-09-25T23:43:58.919Z,86012.81
2022-09-25T23:46:28.682Z,86039.59
2022-09-25T23:48:56.028Z,85970.88
2022-09-25T23:51:23.716Z,86001.84
2022-09-25T23:53:50.758Z,85921.50
2022-09-25T23:56:20.491Z,86047.19
2022-09-25T23:58:48.713Z,86019.03
